^^

..:: Storico WU ::..




Lo storico viene creato da WUnderground con i dati che la stazione Meteomincio invia al loro server. L' aggiornamento viene fatto ogni 5 minuti circa, tuttavia possono esserci intervalli pił ampi a causa di errori, interruzioni di servizio o problemi nell' invio tramite FTP.


Storico stazione MeteoMincio
Giorno Sommario per Giugno 11, 2022 Unità:  Inglese    Metrico   Entrambi
Giorno Settimana Mese Anno
  Max: Min: Media:
Temperatura: 87.8 °F 62.6 °F 76.1 °F
Dew Point: 64.4 °F 57.2 °F 61 °F
Umidità: 85% 41% 62%
Velocità vento: 7.5mph 0mph 2.5mph
Raffica: 10.6mph - -
Direzione- - ESE
Pressione: 30.1 in 30 in -
Precipitazioni: 0 in    
 
 
Tabulato Dati per Giugno 11, 2022
Ora Temperatura Dew Point Pressione Direzione Velocità vento Raffica Umidità Intensità pioggia (oraria) Info solare Situazione
00:04 68 °F 60.8 °F 30 in East 1.9 mph 2.5 mph 76% 0 in 0.00 W/m2 unknown
00:09 68 °F 60.8 °F 30 in East 1.9 mph 2.5 mph 75% 0 in 0.00 W/m2 unknown
00:14 68 °F 60.8 °F 30 in ENE 2.5 mph 3.7 mph 75% 0 in 0.00 W/m2 unknown
00:19 68 °F 59 °F 30 in ENE 3.1 mph 5 mph 75% 0 in 0.00 W/m2 unknown
00:24 68 °F 60.8 °F 30 in ENE 3.1 mph 5 mph 76% 0 in 0.00 W/m2 unknown
00:29 68 °F 60.8 °F 30 in East 3.1 mph 5 mph 76% 0 in 0.00 W/m2 unknown
00:34 68 °F 60.8 °F 30 in ENE 2.5 mph 3.7 mph 77% 0 in 0.00 W/m2 unknown
00:39 68 °F 60.8 °F 30 in NE 2.5 mph 3.7 mph 77% 0 in 0.00 W/m2 unknown
00:44 68 °F 60.8 °F 30 in NE 1.9 mph 3.1 mph 77% 0 in 0.00 W/m2 unknown
00:49 68 °F 60.8 °F 30 in NE 1.2 mph 3.7 mph 77% 0 in 0.00 W/m2 unknown
00:54 68 °F 60.8 °F 30 in NNE 1.9 mph 3.7 mph 77% 0 in 0.00 W/m2 unknown
00:59 68 °F 60.8 °F 30 in NE 1.2 mph 3.1 mph 76% 0 in 0.00 W/m2 unknown
01:04 68 °F 59 °F 30 in NE 1.2 mph 1.9 mph 75% 0 in 0.00 W/m2 unknown
01:09 68 °F 59 °F 30 in NE 0.6 mph 2.5 mph 75% 0 in 0.00 W/m2 unknown
01:14 68 °F 59 °F 30 in NE 1.2 mph 2.5 mph 75% 0 in 0.00 W/m2 unknown
01:19 68 °F 59 °F 30 in NNE 1.2 mph 3.7 mph 75% 0 in 0.00 W/m2 unknown
01:24 68 °F 60.8 °F 30 in North 1.9 mph 3.7 mph 76% 0 in 0.00 W/m2 unknown
01:29 68 °F 59 °F 30 in North 1.9 mph 3.7 mph 75% 0 in 0.00 W/m2 unknown
01:34 68 °F 59 °F 30 in North 1.9 mph 3.7 mph 75% 0 in 0.00 W/m2 unknown
01:39 68 °F 59 °F 30 in North 1.9 mph 3.7 mph 73% 0 in 0.00 W/m2 unknown
01:44 68 °F 59 °F 30 in NNE 1.9 mph 3.7 mph 73% 0 in 0.00 W/m2 unknown
01:49 68 °F 59 °F 30 in NNE 1.9 mph 3.7 mph 73% 0 in 0.00 W/m2 unknown
01:54 68 °F 59 °F 30 in North 1.9 mph 3.7 mph 73% 0 in 0.00 W/m2 unknown
01:59 68 °F 59 °F 30 in North 2.5 mph 3.7 mph 73% 0 in 0.00 W/m2 unknown
02:04 68 °F 59 °F 30 in NNE 1.9 mph 3.7 mph 73% 0 in 0.00 W/m2 unknown
02:09 68 °F 59 °F 30 in NNE 1.9 mph 3.7 mph 72% 0 in 0.00 W/m2 unknown
02:13 68 °F 59 °F 30 in NNE 1.2 mph 3.1 mph 72% 0 in 0.00 W/m2 unknown
02:19 68 °F 59 °F 30 in North 1.2 mph 2.5 mph 72% 0 in 0.00 W/m2 unknown
02:24 68 °F 59 °F 30 in North 1.2 mph 2.5 mph 72% 0 in 0.00 W/m2 unknown
02:29 68 °F 59 °F 30 in North 1.2 mph 2.5 mph 73% 0 in 0.00 W/m2 unknown
02:34 68 °F 59 °F 30 in North 1.9 mph 2.5 mph 73% 0 in 0.00 W/m2 unknown
02:39 68 °F 59 °F 30 in North 1.9 mph 3.1 mph 74% 0 in 0.00 W/m2 unknown
02:44 68 °F 59 °F 30 in North 0.6 mph 2.5 mph 76% 0 in 0.00 W/m2 unknown
02:49 66.2 °F 59 °F 30 in ENE 3.1 mph 8.1 mph 77% 0 in 0.00 W/m2 unknown
02:54 66.2 °F 59 °F 30 in ENE 5 mph 8.1 mph 77% 0 in 0.00 W/m2 unknown
02:59 66.2 °F 59 °F 30 in ENE 5 mph 8.1 mph 79% 0 in 0.00 W/m2 unknown
03:04 64.4 °F 57.2 °F 30 in ENE 5 mph 6.8 mph 79% 0 in 0.00 W/m2 unknown
03:09 64.4 °F 59 °F 30 in ENE 5 mph 6.2 mph 79% 0 in 0.00 W/m2 unknown
03:14 64.4 °F 57.2 °F 30 in ENE 3.7 mph 6.2 mph 79% 0 in 0.00 W/m2 unknown
03:19 64.4 °F 57.2 °F 30 in NE 3.1 mph 5 mph 78% 0 in 0.00 W/m2 unknown
03:23 64.4 °F 57.2 °F 30 in ENE 3.1 mph 5 mph 78% 0 in 0.00 W/m2 unknown
03:28 64.4 °F 57.2 °F 30 in ENE 3.1 mph 3.7 mph 77% 0 in 0.00 W/m2 unknown
03:34 64.4 °F 57.2 °F 30 in ENE 2.5 mph 3.7 mph 78% 0 in 0.00 W/m2 unknown
03:39 64.4 °F 57.2 °F 30 in NE 1.9 mph 3.7 mph 78% 0 in 0.00 W/m2 unknown
03:44 64.4 °F 57.2 °F 30 in NE 1.9 mph 3.7 mph 78% 0 in 0.00 W/m2 unknown
03:48 64.4 °F 57.2 °F 30 in NE 1.9 mph 3.7 mph 77% 0 in 0.00 W/m2 unknown
03:54 64.4 °F 57.2 °F 30 in NE 1.2 mph 1.9 mph 79% 0 in 0.00 W/m2 unknown
03:59 64.4 °F 59 °F 30 in Calm   1.2 mph 80% 0 in 0.00 W/m2 unknown
04:03 64.4 °F 59 °F 30 in Calm   1.2 mph 80% 0 in 0.00 W/m2 unknown
04:08 64.4 °F 59 °F 30 in Calm   1.2 mph 80% 0 in 0.00 W/m2 unknown
04:13 64.4 °F 59 °F 30 in Calm   1.2 mph 80% 0 in 0.00 W/m2 unknown
04:18 64.4 °F 59 °F 30.1 in Calm   1.2 mph 81% 0 in 0.00 W/m2 unknown
04:23 64.4 °F 59 °F 30.1 in North 1.2 mph 1.9 mph 82% 0 in 0.00 W/m2 unknown
04:28 64.4 °F 59 °F 30.1 in North 1.2 mph 2.5 mph 82% 0 in 0.00 W/m2 unknown
04:34 64.4 °F 57.2 °F 30.1 in North 1.2 mph 2.5 mph 81% 0 in 0.00 W/m2 unknown
04:38 64.4 °F 57.2 °F 30.1 in NNE 1.2 mph 1.9 mph 80% 0 in 0.00 W/m2 unknown
04:43 64.4 °F 59 °F 30.1 in Calm     81% 0 in 0.00 W/m2 unknown
04:48 64.4 °F 57.2 °F 30.1 in Calm     81% 0 in 0.00 W/m2 unknown
04:52 64.4 °F 57.2 °F 30.1 in Calm     81% 0 in 0.00 W/m2 unknown
04:58 64.4 °F 57.2 °F 30.1 in Calm     82% 0 in 0.00 W/m2 unknown
05:03 64.4 °F 57.2 °F 30.1 in Calm     82% 0 in 0.00 W/m2 unknown
05:09 62.6 °F 57.2 °F 30.1 in Calm     82% 0 in 0.00 W/m2 unknown
05:14 62.6 °F 57.2 °F 30.1 in Calm     82% 0 in 0.00 W/m2 unknown
05:19 62.6 °F 57.2 °F 30.1 in Calm     82% 0 in 0.00 W/m2 unknown
05:24 62.6 °F 57.2 °F 30.1 in Calm     82% 0 in 0.00 W/m2 unknown
05:29 62.6 °F 57.2 °F 30.1 in Calm     83% 0 in 0.00 W/m2 unknown
05:34 62.6 °F 57.2 °F 30.1 in Calm     84% 0 in 5.00 W/m2 unknown
05:39 62.6 °F 57.2 °F 30.1 in NE 1.2 mph 3.7 mph 84% 0 in 7.00 W/m2 unknown
05:44 62.6 °F 57.2 °F 30.1 in NE 3.1 mph 3.7 mph 85% 0 in 9.00 W/m2 unknown
05:49 62.6 °F 57.2 °F 30.1 in ENE 3.1 mph 3.7 mph 85% 0 in 11.00 W/m2 unknown
05:54 62.6 °F 57.2 °F 30.1 in NE 3.1 mph 3.7 mph 85% 0 in 12.00 W/m2 unknown
05:59 62.6 °F 57.2 °F 30.1 in ENE 2.5 mph 3.7 mph 84% 0 in 16.00 W/m2 unknown
06:00 62.6 °F 57.2 °F 30.1 in ENE 1.9 mph 3.7 mph 84% 0 in 16.00 W/m2 unknown
06:09 62.6 °F 57.2 °F 30.1 in ENE 2.5 mph 3.7 mph 84% 0 in 19.00 W/m2 unknown
06:14 62.6 °F 57.2 °F 30.1 in ENE 1.9 mph 3.7 mph 84% 0 in 23.00 W/m2 unknown
06:19 62.6 °F 57.2 °F 30.1 in ENE 1.9 mph 3.7 mph 84% 0 in 25.00 W/m2 unknown
06:24 62.6 °F 57.2 °F 30.1 in ENE 1.9 mph 3.7 mph 84% 0 in 32.00 W/m2 unknown
06:29 62.6 °F 59 °F 30.1 in ENE 2.5 mph 3.7 mph 84% 0 in 40.00 W/m2 unknown
06:34 64.4 °F 59 °F 30.1 in ENE 2.5 mph 3.7 mph 84% 0 in 49.00 W/m2 unknown
06:39 64.4 °F 59 °F 30.1 in ENE 2.5 mph 3.7 mph 83% 0 in 60.00 W/m2 unknown
06:44 64.4 °F 59 °F 30.1 in ENE 3.1 mph 3.7 mph 83% 0 in 70.00 W/m2 unknown
06:48 64.4 °F 59 °F 30.1 in ENE 3.1 mph 3.7 mph 82% 0 in 79.00 W/m2 unknown
06:54 64.4 °F 59 °F 30.1 in ENE 3.1 mph 3.7 mph 82% 0 in 81.00 W/m2 unknown
06:59 66.2 °F 59 °F 30.1 in ENE 3.1 mph 5 mph 81% 0 in 109.00 W/m2 unknown
07:04 66.2 °F 59 °F 30.1 in ENE 3.1 mph 5 mph 80% 0 in 125.00 W/m2 unknown
07:09 66.2 °F 59 °F 30.1 in ENE 3.1 mph 3.7 mph 79% 0 in 141.00 W/m2 unknown
07:14 68 °F 59 °F 30.1 in NE 3.1 mph 3.7 mph 78% 0 in 156.00 W/m2 unknown
07:19 68 °F 60.8 °F 30.1 in NE 2.5 mph 3.7 mph 77% 0 in 172.00 W/m2 unknown
07:24 68 °F 60.8 °F 30.1 in NE 2.5 mph 3.7 mph 76% 0 in 185.00 W/m2 unknown
07:29 68 °F 60.8 °F 30.1 in NE 1.9 mph 3.7 mph 75% 0 in 195.00 W/m2 unknown
07:34 69.8 °F 60.8 °F 30.1 in NE 2.5 mph 3.7 mph 74% 0 in 209.00 W/m2 unknown
07:39 69.8 °F 60.8 °F 30.1 in NE 2.5 mph 3.7 mph 74% 0 in 223.00 W/m2 unknown
07:44 69.8 °F 60.8 °F 30.1 in NE 3.1 mph 5 mph 74% 0 in 236.00 W/m2 unknown
07:49 69.8 °F 60.8 °F 30.1 in NE 3.1 mph 5 mph 74% 0 in 251.00 W/m2 unknown
07:54 69.8 °F 60.8 °F 30.1 in NE 3.1 mph 5 mph 74% 0 in 265.00 W/m2 unknown
07:59 69.8 °F 60.8 °F 30.1 in NE 2.5 mph 3.7 mph 73% 0 in 278.00 W/m2 unknown
08:03 71.6 °F 60.8 °F 30.1 in ENE 3.1 mph 5 mph 73% 0 in 290.00 W/m2 unknown
08:09 71.6 °F 60.8 °F 30.1 in NE 3.1 mph 5 mph 71% 0 in 308.00 W/m2 unknown
08:14 71.6 °F 62.6 °F 30.1 in NE 3.1 mph 5 mph 73% 0 in 318.00 W/m2 unknown
08:19 71.6 °F 62.6 °F 30.1 in NE 3.1 mph 5 mph 72% 0 in 338.00 W/m2 unknown
08:24 71.6 °F 62.6 °F 30.1 in NE 3.1 mph 5 mph 71% 0 in 352.00 W/m2 unknown
08:29 73.4 °F 62.6 °F 30.1 in NNE 3.1 mph 5 mph 71% 0 in 367.00 W/m2 unknown
08:34 73.4 °F 62.6 °F 30.1 in NNE 3.1 mph 5 mph 70% 0 in 381.00 W/m2 unknown
08:39 73.4 °F 64.4 °F 30.1 in NE 3.1 mph 5 mph 72% 0 in 394.00 W/m2 unknown
08:44 73.4 °F 62.6 °F 30.1 in NE 3.1 mph 5 mph 70% 0 in 408.00 W/m2 unknown
08:49 73.4 °F 62.6 °F 30.1 in NE 2.5 mph 5 mph 67% 0 in 422.00 W/m2 unknown
08:54 73.4 °F 62.6 °F 30.1 in ENE 1.9 mph 5 mph 67% 0 in 436.00 W/m2 unknown
08:59 75.2 °F 64.4 °F 30.1 in NNE 2.5 mph 3.7 mph 69% 0 in 454.00 W/m2 unknown
09:04 75.2 °F 64.4 °F 30.1 in NNE 2.5 mph 3.7 mph 67% 0 in 468.00 W/m2 unknown
09:09 75.2 °F 64.4 °F 30.1 in North 3.1 mph 5 mph 67% 0 in 482.00 W/m2 unknown
09:14 75.2 °F 62.6 °F 30.1 in ENE 3.7 mph 5 mph 64% 0 in 496.00 W/m2 unknown
09:19 75.2 °F 62.6 °F 30.1 in ENE 3.7 mph 5 mph 63% 0 in 506.00 W/m2 unknown
09:24 77 °F 62.6 °F 30.1 in NE 3.7 mph 5 mph 64% 0 in 520.00 W/m2 unknown
09:29 77 °F 62.6 °F 30.1 in NNE 3.1 mph 5 mph 62% 0 in 534.00 W/m2 unknown
09:34 77 °F 62.6 °F 30.1 in NNE 3.1 mph 3.7 mph 62% 0 in 548.00 W/m2 unknown
09:39 77 °F 62.6 °F 30.1 in North 2.5 mph 5 mph 62% 0 in 563.00 W/m2 unknown
09:44 77 °F 64.4 °F 30.1 in NE 3.1 mph 5 mph 65% 0 in 577.00 W/m2 unknown
09:49 77 °F 64.4 °F 30.1 in East 3.1 mph 5 mph 65% 0 in 587.00 W/m2 unknown
09:54 78.8 °F 64.4 °F 30.1 in East 3.1 mph 5 mph 63% 0 in 598.00 W/m2 unknown
09:59 78.8 °F 62.6 °F 30.1 in ESE 3.1 mph 5 mph 60% 0 in 610.00 W/m2 unknown
10:04 78.8 °F 62.6 °F 30.1 in East 3.7 mph 6.2 mph 61% 0 in 622.00 W/m2 unknown
10:09 78.8 °F 64.4 °F 30.1 in East 3.7 mph 6.8 mph 62% 0 in 633.00 W/m2 unknown
10:14 78.8 °F 64.4 °F 30.1 in ESE 3.7 mph 6.8 mph 60% 0 in 647.00 W/m2 unknown
10:19 78.8 °F 64.4 °F 30.1 in ESE 6.8 mph 9.3 mph 60% 0 in 657.00 W/m2 unknown
10:24 78.8 °F 62.6 °F 30.1 in ENE 7.5 mph 9.3 mph 56% 0 in 668.00 W/m2 unknown
10:29 78.8 °F 62.6 °F 30.1 in East 3.1 mph 9.3 mph 58% 0 in 680.00 W/m2 unknown
10:34 78.8 °F 62.6 °F 30.1 in SE 3.1 mph 8.1 mph 58% 0 in 691.00 W/m2 unknown
10:39 80.6 °F 62.6 °F 30.1 in ESE 3.1 mph 5 mph 56% 0 in 700.00 W/m2 unknown
10:44 80.6 °F 62.6 °F 30.1 in ENE 3.7 mph 8.1 mph 54% 0 in 710.00 W/m2 unknown
10:49 80.6 °F 60.8 °F 30.1 in ESE 4.3 mph 8.1 mph 52% 0 in 721.00 W/m2 unknown
10:54 80.6 °F 60.8 °F 30.1 in ENE 5 mph 8.1 mph 53% 0 in 729.00 W/m2 unknown
10:59 80.6 °F 60.8 °F 30.1 in ESE 3.7 mph 6.8 mph 53% 0 in 738.00 W/m2 unknown
11:04 80.6 °F 62.6 °F 30.1 in ESE 3.7 mph 6.8 mph 54% 0 in 751.00 W/m2 unknown
11:09 80.6 °F 60.8 °F 30.1 in SE 4.3 mph 6.8 mph 53% 0 in 759.00 W/m2 unknown
11:14 80.6 °F 60.8 °F 30.1 in South 3.1 mph 6.8 mph 52% 0 in 766.00 W/m2 unknown
11:19 80.6 °F 62.6 °F 30.1 in SSE 3.1 mph 8.1 mph 53% 0 in 773.00 W/m2 unknown
11:24 80.6 °F 62.6 °F 30.1 in SSE 3.1 mph 8.1 mph 53% 0 in 782.00 W/m2 unknown
11:29 80.6 °F 60.8 °F 30.1 in ESE 3.7 mph 8.1 mph 51% 0 in 788.00 W/m2 unknown
11:34 80.6 °F 62.6 °F 30.1 in ESE 3.1 mph 6.8 mph 52% 0 in 798.00 W/m2 unknown
11:39 80.6 °F 60.8 °F 30.1 in SE 3.1 mph 6.8 mph 50% 0 in 805.00 W/m2 unknown
11:44 82.4 °F 60.8 °F 30.1 in South 5 mph 10.6 mph 49% 0 in 812.00 W/m2 unknown
11:49 82.4 °F 60.8 °F 30.1 in SSW 5.6 mph 10.6 mph 50% 0 in 819.00 W/m2 unknown
11:54 82.4 °F 60.8 °F 30.1 in ESE 5 mph 9.9 mph 50% 0 in 824.00 W/m2 unknown
11:59 82.4 °F 60.8 °F 30.1 in East 5 mph 6.8 mph 50% 0 in 833.00 W/m2 unknown
12:04 82.4 °F 60.8 °F 30.1 in SE 3.1 mph 6.8 mph 50% 0 in 837.00 W/m2 unknown
12:09 82.4 °F 62.6 °F 30.1 in SSE 3.1 mph 6.8 mph 50% 0 in 846.00 W/m2 unknown
12:14 82.4 °F 60.8 °F 30.1 in SSW 3.7 mph 6.8 mph 49% 0 in 853.00 W/m2 unknown
12:19 82.4 °F 60.8 °F 30.1 in South 3.7 mph 6.8 mph 48% 0 in 861.00 W/m2 unknown
12:24 82.4 °F 60.8 °F 30.1 in SSW 3.1 mph 5 mph 48% 0 in 863.00 W/m2 unknown
12:29 82.4 °F 62.6 °F 30.1 in ENE 2.5 mph 8.1 mph 52% 0 in 868.00 W/m2 unknown
12:34 82.4 °F 60.8 °F 30.1 in ESE 3.7 mph 8.1 mph 47% 0 in 867.00 W/m2 unknown
12:39 82.4 °F 64.4 °F 30.1 in NNE 3.1 mph 8.1 mph 54% 0 in 868.00 W/m2 unknown
12:44 84.2 °F 64.4 °F 30.1 in NNE 3.7 mph 5 mph 54% 0 in 872.00 W/m2 unknown
12:49 84.2 °F 62.6 °F 30.1 in ENE 3.1 mph 5 mph 49% 0 in 874.00 W/m2 unknown
12:54 84.2 °F 60.8 °F 30.1 in ESE 4.3 mph 6.8 mph 48% 0 in 875.00 W/m2 unknown
12:59 82.4 °F 60.8 °F 30.1 in SE 5 mph 6.8 mph 48% 0 in 881.00 W/m2 unknown
13:04 82.4 °F 60.8 °F 30.1 in ESE 5 mph 6.8 mph 47% 0 in 884.00 W/m2 unknown
13:09 84.2 °F 62.6 °F 30.1 in ENE 3.7 mph 4.3 mph 49% 0 in 891.00 W/m2 unknown
13:13 84.2 °F 60.8 °F 30.1 in ENE 3.1 mph 5 mph 46% 0 in 891.00 W/m2 unknown
13:19 84.2 °F 60.8 °F 30.1 in SE 3.1 mph 6.2 mph 46% 0 in 889.00 W/m2 unknown
13:24 84.2 °F 60.8 °F 30.1 in East 3.7 mph 6.2 mph 46% 0 in 888.00 W/m2 unknown
13:29 84.2 °F 62.6 °F 30.1 in ENE 3.1 mph 6.2 mph 48% 0 in 889.00 W/m2 unknown
13:34 84.2 °F 60.8 °F 30.1 in West 1.9 mph 6.2 mph 45% 0 in 889.00 W/m2 unknown
13:39 84.2 °F 60.8 °F 30.1 in WNW 3.1 mph 6.2 mph 45% 0 in 882.00 W/m2 unknown
13:44 84.2 °F 60.8 °F 30.1 in West 3.7 mph 6.2 mph 45% 0 in 886.00 W/m2 unknown
13:49 86 °F 62.6 °F 30.1 in WSW 3.1 mph 6.2 mph 48% 0 in 882.00 W/m2 unknown
13:54 86 °F 62.6 °F 30.1 in WNW 1.9 mph 3.7 mph 48% 0 in 875.00 W/m2 unknown
13:59 86 °F 62.6 °F 30.1 in WNW 2.5 mph 3.7 mph 46% 0 in 891.00 W/m2 unknown
14:04 86 °F 62.6 °F 30.1 in ENE 1.9 mph 3.7 mph 46% 0 in 891.00 W/m2 unknown
14:09 86 °F 62.6 °F 30.1 in North 1.9 mph 3.7 mph 47% 0 in 875.00 W/m2 unknown
14:14 86 °F 62.6 °F 30.1 in NE 1.9 mph 3.7 mph 46% 0 in 863.00 W/m2 unknown
14:19 84.2 °F 62.6 °F 30.1 in SSE 2.5 mph 3.7 mph 47% 0 in 861.00 W/m2 unknown
14:24 86 °F 62.6 °F 30.1 in NNE 3.1 mph 3.7 mph 47% 0 in 863.00 W/m2 unknown
14:29 86 °F 62.6 °F 30.1 in NNW 3.1 mph 6.2 mph 45% 0 in 872.00 W/m2 unknown
14:34 86 °F 62.6 °F 30.1 in North 3.7 mph 6.2 mph 47% 0 in 870.00 W/m2 unknown
14:39 86 °F 62.6 °F 30.1 in North 3.1 mph 6.8 mph 45% 0 in 865.00 W/m2 unknown
14:44 86 °F 60.8 °F 30.1 in East 3.1 mph 6.8 mph 45% 0 in 856.00 W/m2 unknown
14:49 86 °F 60.8 °F 30.1 in NE 3.1 mph 6.8 mph 44% 0 in 851.00 W/m2 unknown
14:54 86 °F 60.8 °F 30.1 in ENE 3.1 mph 6.8 mph 43% 0 in 849.00 W/m2 unknown
14:56 86 °F 60.8 °F 30.1 in NE 3.1 mph 6.2 mph 42% 0 in 846.00 W/m2 unknown
15:04 86 °F 60.8 °F 30.1 in ENE 3.1 mph 6.2 mph 42% 0 in 846.00 W/m2 unknown
15:09 86 °F 60.8 °F 30.1 in East 5 mph 9.3 mph 43% 0 in 830.00 W/m2 unknown
15:14 86 °F 60.8 °F 30.1 in NNE 5 mph 9.3 mph 43% 0 in 824.00 W/m2 unknown
15:19 86 °F 60.8 °F 30.1 in NNE 3.7 mph 9.3 mph 43% 0 in 816.00 W/m2 unknown
15:24 86 °F 60.8 °F 30.1 in ENE 5 mph 9.3 mph 43% 0 in 807.00 W/m2 unknown
15:29 86 °F 60.8 °F 30.1 in NNE 5 mph 8.7 mph 44% 0 in 802.00 W/m2 unknown
15:34 86 °F 60.8 °F 30.1 in ESE 3.7 mph 6.8 mph 44% 0 in 793.00 W/m2 unknown
15:39 86 °F 60.8 °F 30.1 in SE 3.1 mph 6.8 mph 42% 0 in 786.00 W/m2 unknown
15:44 86 °F 60.8 °F 30.1 in SSE 3.7 mph 5 mph 42% 0 in 779.00 W/m2 unknown
15:49 86 °F 60.8 °F 30.1 in WSW 3.1 mph 3.7 mph 44% 0 in 765.00 W/m2 unknown
15:54 86 °F 62.6 °F 30.1 in SSE 1.9 mph 3.7 mph 45% 0 in 758.00 W/m2 unknown
15:59 86 °F 60.8 °F 30.1 in South 2.5 mph 3.7 mph 43% 0 in 747.00 W/m2 unknown
16:04 86 °F 60.8 °F 30.1 in WSW 3.1 mph 6.2 mph 43% 0 in 735.00 W/m2 unknown
16:09 86 °F 62.6 °F 30.1 in South 3.7 mph 6.8 mph 44% 0 in 726.00 W/m2 unknown
16:14 87.8 °F 62.6 °F 30.1 in South 3.7 mph 6.8 mph 44% 0 in 715.00 W/m2 unknown
16:19 87.8 °F 60.8 °F 30 in SW 4.3 mph 6.2 mph 41% 0 in 703.00 W/m2 unknown
16:24 86 °F 60.8 °F 30 in West 3.1 mph 6.2 mph 42% 0 in 691.00 W/m2 unknown
16:29 86 °F 60.8 °F 30 in SSW 3.1 mph 5 mph 42% 0 in 680.00 W/m2 unknown
16:34 86 °F 60.8 °F 30 in SSE 3.1 mph 5 mph 42% 0 in 670.00 W/m2 unknown
16:39 86 °F 62.6 °F 30 in SE 1.9 mph 5 mph 44% 0 in 656.00 W/m2 unknown
16:44 86 °F 62.6 °F 30 in WSW 3.1 mph 5 mph 44% 0 in 645.00 W/m2 unknown
16:49 86 °F 59 °F 30 in WSW 2.5 mph 5 mph 41% 0 in 635.00 W/m2 unknown
16:54 86 °F 60.8 °F 30 in NNW 2.5 mph 5 mph 42% 0 in 621.00 W/m2 unknown
16:59 86 °F 59 °F 30 in East 1.9 mph 5 mph 41% 0 in 608.00 W/m2 unknown
17:04 86 °F 60.8 °F 30 in South 1.9 mph 3.7 mph 42% 0 in 596.00 W/m2 unknown
17:09 86 °F 60.8 °F 30 in SE 3.1 mph 5 mph 42% 0 in 580.00 W/m2 unknown
17:14 86 °F 60.8 °F 30 in SSW 3.7 mph 5 mph 42% 0 in 563.00 W/m2 unknown
17:19 86 °F 60.8 °F 30 in SSW 3.7 mph 5 mph 42% 0 in 550.00 W/m2 unknown
17:24 86 °F 59 °F 30 in SSE 3.1 mph 6.2 mph 41% 0 in 541.00 W/m2 unknown
17:29 86 °F 59 °F 30 in SE 3.7 mph 6.2 mph 41% 0 in 533.00 W/m2 unknown
17:34 86 °F 59 °F 30 in ESE 3.7 mph 5 mph 41% 0 in 520.00 W/m2 unknown
17:39 86 °F 60.8 °F 30 in ESE 3.1 mph 5 mph 43% 0 in 499.00 W/m2 unknown
17:44 86 °F 60.8 °F 30 in SE 3.1 mph 5 mph 43% 0 in 487.00 W/m2 unknown
17:49 86 °F 60.8 °F 30 in ESE 3.1 mph 5 mph 42% 0 in 473.00 W/m2 unknown
17:54 86 °F 60.8 °F 30 in SSE 1.9 mph 5 mph 44% 0 in 462.00 W/m2 unknown
17:59 86 °F 60.8 °F 30 in SW 1.9 mph 3.7 mph 41% 0 in 446.00 W/m2 unknown
18:04 86 °F 60.8 °F 30 in East 2.5 mph 3.7 mph 42% 0 in 432.00 W/m2 unknown
18:09 86 °F 60.8 °F 30 in SE 2.5 mph 3.7 mph 42% 0 in 417.00 W/m2 unknown
18:14 86 °F 60.8 °F 30 in SW 3.1 mph 6.2 mph 44% 0 in 403.00 W/m2 unknown
18:19 86 °F 60.8 °F 30 in SW 3.1 mph 6.2 mph 42% 0 in 390.00 W/m2 unknown
18:24 86 °F 60.8 °F 30 in WSW 3.1 mph 6.2 mph 43% 0 in 378.00 W/m2 unknown
18:29 86 °F 62.6 °F 30 in NNW 2.5 mph 5 mph 45% 0 in 362.00 W/m2 unknown
18:34 86 °F 60.8 °F 30 in NE 1.9 mph 5 mph 44% 0 in 348.00 W/m2 unknown
18:39 86 °F 60.8 °F 30 in ESE 2.5 mph 3.7 mph 44% 0 in 334.00 W/m2 unknown
18:44 86 °F 62.6 °F 30 in SSE 1.9 mph 3.7 mph 45% 0 in 318.00 W/m2 unknown
18:49 86 °F 60.8 °F 30 in South 1.2 mph 3.7 mph 43% 0 in 304.00 W/m2 unknown
18:54 86 °F 60.8 °F 30 in SW 3.1 mph 3.7 mph 43% 0 in 290.00 W/m2 unknown
18:59 86 °F 60.8 °F 30 in SSW 3.7 mph 5 mph 43% 0 in 276.00 W/m2 unknown
19:04 86 °F 59 °F 30 in SSW 3.7 mph 5 mph 41% 0 in 262.00 W/m2 unknown
19:09 86 °F 60.8 °F 30 in SSW 3.1 mph 5 mph 43% 0 in 246.00 W/m2 unknown
19:14 86 °F 59 °F 30 in South 2.5 mph 3.7 mph 41% 0 in 232.00 W/m2 unknown
19:19 86 °F 60.8 °F 30 in South 2.5 mph 3.7 mph 43% 0 in 218.00 W/m2 unknown
19:24 86 °F 60.8 °F 30 in ESE 1.9 mph 3.7 mph 45% 0 in 204.00 W/m2 unknown
19:29 86 °F 60.8 °F 30 in SSE 1.2 mph 3.1 mph 46% 0 in 185.00 W/m2 unknown
19:34 84.2 °F 62.6 °F 30 in South 2.5 mph 3.7 mph 46% 0 in 171.00 W/m2 unknown
19:39 84.2 °F 60.8 °F 30 in South 3.1 mph 3.7 mph 46% 0 in 156.00 W/m2 unknown
19:44 84.2 °F 62.6 °F 30 in SE 2.5 mph 3.7 mph 49% 0 in 139.00 W/m2 unknown
19:49 84.2 °F 62.6 °F 30 in South 1.2 mph 3.1 mph 49% 0 in 123.00 W/m2 unknown
19:54 84.2 °F 62.6 °F 30 in South 1.9 mph 3.7 mph 47% 0 in 104.00 W/m2 unknown
19:59 84.2 °F 60.8 °F 30 in South 1.9 mph 3.7 mph 47% 0 in 95.00 W/m2 unknown
20:04 84.2 °F 60.8 °F 30 in South 2.5 mph 3.7 mph 47% 0 in 81.00 W/m2 unknown
20:09 84.2 °F 62.6 °F 30 in South 2.5 mph 3.7 mph 50% 0 in 70.00 W/m2 unknown
20:14 84.2 °F 62.6 °F 30 in South 2.5 mph 3.7 mph 50% 0 in 28.00 W/m2 unknown
20:19 82.4 °F 62.6 °F 30 in SSW 1.9 mph 3.1 mph 51% 0 in 25.00 W/m2 unknown
20:24 82.4 °F 64.4 °F 30 in SSE 1.2 mph 2.5 mph 54% 0 in 23.00 W/m2 unknown
20:29 82.4 °F 64.4 °F 30 in South 1.2 mph 2.5 mph 55% 0 in 21.00 W/m2 unknown
20:34 82.4 °F 64.4 °F 30 in South 1.2 mph 2.5 mph 55% 0 in 18.00 W/m2 unknown
20:39 80.6 °F 64.4 °F 30 in South 1.2 mph 2.5 mph 55% 0 in 16.00 W/m2 unknown
20:44 80.6 °F 62.6 °F 30 in South 1.2 mph 2.5 mph 56% 0 in 14.00 W/m2 unknown
20:49 80.6 °F 62.6 °F 30 in South 1.2 mph 2.5 mph 56% 0 in 11.00 W/m2 unknown
20:54 80.6 °F 64.4 °F 30 in South 1.2 mph 2.5 mph 59% 0 in 9.00 W/m2 unknown
20:59 80.6 °F 64.4 °F 30 in Calm   1.9 mph 59% 0 in 7.00 W/m2 unknown
21:04 78.8 °F 64.4 °F 30 in Calm     59% 0 in 5.00 W/m2 unknown
21:09 78.8 °F 64.4 °F 30 in Calm     60% 0 in 0.00 W/m2 unknown
21:14 78.8 °F 64.4 °F 30 in Calm     60% 0 in 0.00 W/m2 unknown
21:19 78.8 °F 64.4 °F 30 in Calm     61% 0 in 0.00 W/m2 unknown
21:24 78.8 °F 62.6 °F 30 in Calm     60% 0 in 0.00 W/m2 unknown
21:29 77 °F 62.6 °F 30.1 in Calm     61% 0 in 0.00 W/m2 unknown
21:34 77 °F 62.6 °F 30.1 in Calm     62% 0 in 0.00 W/m2 unknown
21:39 77 °F 62.6 °F 30.1 in Calm     63% 0 in 0.00 W/m2 unknown
21:44 77 °F 62.6 °F 30.1 in Calm     62% 0 in 0.00 W/m2 unknown
21:49 75.2 °F 62.6 °F 30.1 in SE 1.2 mph 3.7 mph 63% 0 in 0.00 W/m2 unknown
21:54 75.2 °F 60.8 °F 30.1 in SE 2.5 mph 3.7 mph 64% 0 in 0.00 W/m2 unknown
21:59 75.2 °F 62.6 °F 30.1 in SE 2.5 mph 3.7 mph 64% 0 in 0.00 W/m2 unknown
22:04 75.2 °F 62.6 °F 30.1 in SE 1.9 mph 3.1 mph 65% 0 in 0.00 W/m2 unknown
22:09 75.2 °F 62.6 °F 30.1 in SE 1.9 mph 3.7 mph 66% 0 in 0.00 W/m2 unknown
22:14 75.2 °F 62.6 °F 30.1 in SE 1.9 mph 3.7 mph 66% 0 in 0.00 W/m2 unknown
22:19 75.2 °F 62.6 °F 30.1 in SE 1.9 mph 3.7 mph 66% 0 in 0.00 W/m2 unknown
22:24 75.2 °F 62.6 °F 30.1 in SE 1.9 mph 3.7 mph 67% 0 in 0.00 W/m2 unknown
22:29 75.2 °F 62.6 °F 30.1 in SSE 1.9 mph 3.1 mph 66% 0 in 0.00 W/m2 unknown
22:34 75.2 °F 62.6 °F 30.1 in SSE 1.9 mph 3.7 mph 64% 0 in 0.00 W/m2 unknown
22:39 75.2 °F 62.6 °F 30.1 in South 1.9 mph 3.7 mph 64% 0 in 0.00 W/m2 unknown
22:44 75.2 °F 62.6 °F 30.1 in South 1.9 mph 3.7 mph 64% 0 in 0.00 W/m2 unknown
22:49 75.2 °F 62.6 °F 30.1 in South 1.9 mph 3.7 mph 65% 0 in 0.00 W/m2 unknown
22:54 75.2 °F 62.6 °F 30.1 in South 1.9 mph 3.1 mph 66% 0 in 0.00 W/m2 unknown
22:59 75.2 °F 62.6 °F 30.1 in South 1.9 mph 2.5 mph 66% 0 in 0.00 W/m2 unknown
23:04 75.2 °F 62.6 °F 30.1 in South 1.2 mph 2.5 mph 67% 0 in 0.00 W/m2 unknown
23:09 75.2 °F 62.6 °F 30.1 in South 1.9 mph 3.7 mph 68% 0 in 0.00 W/m2 unknown
23:14 75.2 °F 62.6 °F 30.1 in South 1.9 mph 3.7 mph 68% 0 in 0.00 W/m2 unknown
23:19 75.2 °F 62.6 °F 30.1 in South 1.9 mph 3.7 mph 68% 0 in 0.00 W/m2 unknown
23:24 73.4 °F 62.6 °F 30.1 in South 1.2 mph 3.1 mph 68% 0 in 0.00 W/m2 unknown
23:29 73.4 °F 62.6 °F 30.1 in South 1.9 mph 2.5 mph 69% 0 in 0.00 W/m2 unknown
23:34 73.4 °F 62.6 °F 30.1 in SSE 1.2 mph 2.5 mph 70% 0 in 0.00 W/m2 unknown
23:39 73.4 °F 62.6 °F 30.1 in SSE 1.9 mph 2.5 mph 71% 0 in 0.00 W/m2 unknown
23:44 73.4 °F 62.6 °F 30.1 in SSE 1.2 mph 3.7 mph 72% 0 in 0.00 W/m2 unknown
23:48 73.4 °F 62.6 °F 30.1 in SSE 1.2 mph 3.7 mph 72% 0 in 0.00 W/m2 unknown
23:54 71.6 °F 62.6 °F 30.1 in SSE 0.6 mph 3.1 mph 73% 0 in 0.00 W/m2 unknown
23:59 71.6 °F 62.6 °F 30.1 in SSE 0.6 mph 1.2 mph 73% 0 in 0.00 W/m2 unknown
Stazione Meteorologica MeteoMincio Rivalta s/M (MN)
Con i complimenti di Weather Underground - 4 mb



METEO PILLOLE
Il luogo più piovoso della Terra
Lloro - Colombia
Ogni anno cadono in media 13300 millimetri di pioggia.
Share

Non seguire questo link o sarai bannato dal sito!